Time;durP1;ratioP1;P1;durP2;ratioP2;P2;SDS_P1;SDS_P2;PMS_P1;PMS_P2;Temp;Humidity;BMP_temperature;BMP_pressure;BME280_temperature;BME280_humidity;BME280_pressure;Samples;Min_cycle;Max_cycle;Signal;HPM_P1;HPM_P2
2021/12/14 00:03:32;;;;;;;24.33;15.30;;;;;;;5.07;100.00;102246.91;10275301;28;20033;-88
2021/12/14 00:08:37;;;;;;;21.58;14.75;;;;;;;3.17;100.00;101984.88;10321459;28;20065;-88
2021/12/14 00:18:41;;;;;;;22.40;14.70;;;;;;;4.17;100.00;102072.03;10287847;28;20038;-94
2021/12/14 00:29:00;;;;;;;23.30;13.60;;;;;;;1.30;100.00;101781.47;10291778;28;20066;-94
2021/12/14 00:34:04;;;;;;;22.42;13.30;;;;;;;2.92;100.00;101899.81;10286657;28;20470;-93
2021/12/14 00:39:06;;;;;;;25.50;14.77;;;;;;;2.20;100.00;101915.22;10276795;28;20046;-94
2021/12/14 00:44:07;;;;;;;20.17;14.40;;;;;;;5.24;100.00;102286.66;10278336;28;20045;-94
2021/12/14 00:49:09;;;;;;;17.83;12.55;;;;;;;3.33;100.00;101959.41;10294875;28;20046;-94
2021/12/14 00:54:12;;;;;;;25.13;13.23;;;;;;;3.72;100.00;102128.22;10295658;28;20038;-88
2021/12/14 00:59:13;;;;;;;19.80;11.95;;;;;;;3.49;100.00;101939.41;10316747;28;20033;-88
2021/12/14 01:04:20;;;;;;;17.98;12.13;;;;;;;5.04;100.00;102276.25;10331664;28;20045;-88
2021/12/14 01:09:29;;;;;;;16.75;11.30;;;;;;;2.03;100.00;101826.66;10315480;28;20042;-88
2021/12/14 01:14:39;;;;;;;20.75;11.50;;;;;;;2.77;100.00;101910.59;10317948;28;20042;-94
2021/12/14 01:19:43;;;;;;;17.45;10.35;;;;;;;2.38;100.00;101884.28;10331780;28;20037;-88
2021/12/14 01:25:01;;;;;;;17.58;11.82;;;;;;;4.62;100.00;102203.09;10329543;28;20026;-88
2021/12/14 01:30:18;;;;;;;18.58;11.32;;;;;;;5.29;100.00;102245.97;10309647;28;20383;-88
2021/12/14 01:35:22;;;;;;;17.50;11.23;;;;;;;2.65;100.00;101860.34;10291722;28;20046;-88
2021/12/14 01:40:46;;;;;;;18.90;11.57;;;;;;;5.28;100.00;102265.31;10290484;28;20286;-88
2021/12/14 01:45:43;;;;;;;15.10;11.20;;;;;;;4.27;100.00;102147.28;10301573;28;20040;-88
2021/12/14 01:50:47;;;;;;;20.50;12.95;;;;;;;3.10;100.00;101878.63;10306169;28;20465;-88
2021/12/14 01:55:53;;;;;;;20.00;11.93;;;;;;;3.67;100.00;102130.59;10274404;28;20048;-88
2021/12/14 02:01:00;;;;;;;18.58;12.93;;;;;;;3.22;100.00;101906.25;10296958;28;20100;-88
2021/12/14 02:06:01;;;;;;;23.88;13.45;;;;;;;3.56;100.00;101986.69;10307037;28;20043;-88
2021/12/14 02:11:04;;;;;;;18.17;12.02;;;;;;;4.74;100.00;102181.69;10278856;28;20033;-88
2021/12/14 02:16:09;;;;;;;20.85;13.45;;;;;;;5.42;100.00;102250.84;10331104;28;20040;-93
2021/12/14 02:21:10;;;;;;;20.67;14.50;;;;;;;1.48;100.00;101762.31;10316110;28;20029;-94
2021/12/14 02:26:14;;;;;;;20.77;14.20;;;;;;;4.64;100.00;102275.53;10329478;28;20042;-88
2021/12/14 02:31:17;;;;;;;22.52;14.32;;;;;;;1.27;100.00;101629.91;10290645;28;20049;-88
2021/12/14 02:36:20;;;;;;;21.98;13.55;;;;;;;4.33;100.00;102152.00;10310569;28;20115;-92
2021/12/14 02:41:21;;;;;;;25.17;15.68;;;;;;;4.55;100.00;102200.25;10314162;28;20057;-93
2021/12/14 02:46:23;;;;;;;22.67;14.88;;;;;;;6.81;100.00;102445.28;10329300;28;20062;-88
2021/12/14 02:51:36;;;;;;;29.15;17.08;;;;;;;1.01;100.00;101647.25;10329298;28;20033;-93
2021/12/14 02:56:37;;;;;;;22.40;15.45;;;;;;;1.47;100.00;101760.59;10313201;28;20044;-88
2021/12/14 03:01:38;;;;;;;29.50;16.20;;;;;;;2.98;100.00;101988.88;10307539;28;20045;-88
2021/12/14 03:06:54;;;;;;;28.42;17.60;;;;;;;4.14;100.00;102126.91;10304840;28;20125;-87
2021/12/14 03:11:55;;;;;;;31.38;17.85;;;;;;;3.71;100.00;102178.25;10329404;28;20034;-93
2021/12/14 03:16:55;;;;;;;27.92;17.58;;;;;;;2.61;100.00;101819.94;10328694;28;20030;-93
2021/12/14 03:21:56;;;;;;;27.08;16.35;;;;;;;0.75;100.00;101614.97;10313353;28;20124;-93
2021/12/14 03:26:57;;;;;;;27.65;17.83;;;;;;;2.07;100.00;101781.81;10313193;28;20044;-93
2021/12/14 03:31:58;;;;;;;32.28;18.83;;;;;;;2.66;100.00;101826.69;10326586;28;20084;-88
2021/12/14 03:37:01;;;;;;;29.42;18.02;;;;;;;3.16;100.00;101996.78;10326684;28;20042;-88
2021/12/14 03:42:06;;;;;;;33.35;18.17;;;;;;;1.83;100.00;101895.94;10350184;28;20466;-88
2021/12/14 03:47:12;;;;;;;32.92;18.15;;;;;;;6.55;100.00;102536.94;10294783;28;20029;-88
2021/12/14 03:52:15;;;;;;;32.00;18.83;;;;;;;0.31;100.00;101555.72;10310715;28;20096;-88
2021/12/14 03:57:16;;;;;;;29.80;17.92;;;;;;;2.97;100.00;101946.38;10311686;28;20048;-93
2021/12/14 04:02:17;;;;;;;31.83;19.17;;;;;;;2.80;100.00;102029.91;10311556;28;20030;-94
2021/12/14 04:07:17;;;;;;;32.00;19.50;;;;;;;2.32;100.00;101885.81;10326846;28;20050;-92
2021/12/14 04:12:18;;;;;;;34.03;19.88;;;;;;;3.18;100.00;102027.38;10310421;28;20040;-93
2021/12/14 04:17:20;;;;;;;32.50;18.60;;;;;;;2.67;100.00;101897.22;10327235;28;20036;-92
2021/12/14 04:22:23;;;;;;;34.08;19.98;;;;;;;1.46;100.00;101575.22;10310464;28;20030;-93
2021/12/14 04:27:25;;;;;;;37.78;21.55;;;;;;;3.32;100.00;101993.97;10311079;28;20045;-94
2021/12/14 04:32:26;;;;;;;41.42;21.60;;;;;;;1.25;100.00;101776.56;10326905;28;20052;-92
2021/12/14 04:37:26;;;;;;;37.60;21.70;;;;;;;3.97;100.00;102147.13;10327183;28;20052;-93
2021/12/14 04:53:25;;;;;;;38.85;22.33;;;;;;;6.60;100.00;102397.66;10347806;28;20049;-92
2021/12/14 04:58:28;;;;;;;46.13;24.05;;;;;;;4.00;100.00;102035.03;10325566;28;20046;-94
2021/12/14 05:03:46;;;;;;;42.03;24.02;;;;;;;1.14;100.00;101641.31;10310663;28;20034;-94
2021/12/14 05:14:23;;;;;;;39.35;23.80;;;;;;;3.87;100.00;102174.59;10330785;28;20038;-91
2021/12/14 05:19:25;;;;;;;42.17;22.60;;;;;;;1.36;100.00;101616.13;10326082;28;20036;-93
2021/12/14 05:24:27;;;;;;;38.13;23.08;;;;;;;4.46;100.00;102204.03;10312284;28;20041;-93
2021/12/14 05:29:28;;;;;;;43.22;23.77;;;;;;;2.65;100.00;101846.75;10316614;28;20449;-92
2021/12/14 05:34:29;;;;;;;43.70;23.75;;;;;;;4.01;100.00;102004.03;10316692;28;20045;-93
2021/12/14 05:39:47;;;;;;;43.92;24.65;;;;;;;6.74;100.00;102682.47;10333027;28;20506;-92
2021/12/14 05:44:48;;;;;;;47.40;25.42;;;;;;;2.57;100.00;102019.75;10320901;28;20390;-92
2021/12/14 05:49:48;;;;;;;51.63;26.13;;;;;;;3.90;100.00;102078.03;10331939;28;20033;-88
2021/12/14 05:54:49;;;;;;;51.45;27.92;;;;;;;2.74;100.00;101910.94;10331142;28;20037;-90
2021/12/14 05:59:50;;;;;;;46.65;26.13;;;;;;;5.78;100.00;102349.31;10330903;28;20045;-90
2021/12/14 06:04:51;;;;;;;51.78;27.50;;;;;;;6.31;100.00;102553.59;10317665;28;20044;-89
2021/12/14 06:09:52;;;;;;;48.50;27.33;;;;;;;5.13;100.00;102240.72;10337215;28;20045;-87
2021/12/14 06:14:55;;;;;;;58.80;30.13;;;;;;;4.24;100.00;102171.16;10293363;28;20100;-91
2021/12/14 06:19:58;;;;;;;52.42;27.92;;;;;;;4.53;100.00;102182.38;10276294;28;20046;-93
2021/12/14 06:25:06;;;;;;;52.45;28.98;;;;;;;4.43;100.00;102190.78;10275210;28;20042;-92
2021/12/14 06:30:14;;;;;;;55.70;28.73;;;;;;;2.49;100.00;101848.53;10305573;28;20136;-92
2021/12/14 06:35:21;;;;;;;54.40;28.13;;;;;;;2.93;100.00;101924.09;10314522;28;20042;-93
2021/12/14 06:40:26;;;;;;;61.28;31.20;;;;;;;5.20;100.00;102312.63;10313068;28;20077;-89
2021/12/14 06:45:29;;;;;;;67.05;30.27;;;;;;;5.20;100.00;102294.38;10302920;28;20117;-93
2021/12/14 06:50:35;;;;;;;69.78;32.45;;;;;;;2.53;100.00;101887.94;10273591;28;20125;-92
2021/12/14 06:55:36;;;;;;;62.88;30.92;;;;;;;6.06;100.00;102564.72;10272062;28;20504;-89
2021/12/14 07:00:38;;;;;;;67.70;33.45;;;;;;;3.21;100.00;102021.59;10286104;28;20070;-89
2021/12/14 07:05:41;;;;;;;67.65;32.45;;;;;;;2.32;100.00;101863.22;10307889;28;20104;-89
2021/12/14 07:10:43;;;;;;;70.82;33.60;;;;;;;3.73;100.00;102086.31;10289598;28;20045;-89
2021/12/14 07:15:44;;;;;;;66.20;34.28;;;;;;;4.57;100.00;102375.47;10290173;28;20034;-90
2021/12/14 07:20:49;;;;;;;65.65;33.55;;;;;;;1.21;100.00;101689.25;10327463;28;20125;-89
2021/12/14 07:25:52;;;;;;;63.55;31.55;;;;;;;2.84;100.00;101976.84;10313592;28;20037;-91
2021/12/14 07:30:55;;;;;;;64.15;32.95;;;;;;;2.70;100.00;101838.91;10311883;28;20054;-91
2021/12/14 07:36:07;;;;;;;60.10;30.92;;;;;;;1.82;100.00;101911.41;10300246;28;20046;-90
2021/12/14 07:41:09;;;;;;;64.43;32.03;;;;;;;6.71;100.00;102507.69;10285612;28;20042;-91
2021/12/14 07:46:22;;;;;;;64.07;32.17;;;;;;;2.62;100.00;102025.56;10286924;28;20043;-91
2021/12/14 07:51:23;;;;;;;62.05;33.28;;;;;;;3.61;100.00;102104.06;10302897;28;20042;-89
2021/12/14 07:56:25;;;;;;;62.88;32.35;;;;;;;6.74;100.00;102518.22;10270892;28;20023;-92
2021/12/14 08:01:26;;;;;;;68.90;34.67;;;;;;;2.55;100.00;101875.00;10285329;28;20506;-89
2021/12/14 08:06:26;;;;;;;71.65;34.28;;;;;;;4.65;100.00;102271.78;10285267;28;20035;-89
2021/12/14 08:11:47;;;;;;;72.03;36.60;;;;;;;4.07;100.00;102224.03;10268450;28;20038;-89
2021/12/14 08:17:05;;;;;;;65.97;33.85;;;;;;;0.38;100.00;101581.94;10273490;28;20030;-90
2021/12/14 08:22:15;;;;;;;74.53;37.42;;;;;;;4.96;100.00;102262.69;10269806;28;20042;-91
2021/12/14 08:27:24;;;;;;;76.90;38.25;;;;;;;5.41;100.00;102479.38;10287128;28;20105;-91
2021/12/14 08:32:31;;;;;;;77.38;38.17;;;;;;;3.02;100.00;101977.47;10286466;28;20046;-92
2021/12/14 08:37:34;;;;;;;78.28;38.42;;;;;;;3.23;100.00;102095.75;10271261;28;20133;-92
2021/12/14 08:42:48;;;;;;;82.65;38.38;;;;;;;5.42;100.00;102573.97;10271009;28;20070;-93
2021/12/14 08:47:48;;;;;;;87.07;40.08;;;;;;;3.44;100.00;102136.81;10282621;28;20023;-91
2021/12/14 08:52:49;;;;;;;80.63;38.55;;;;;;;5.00;100.00;102351.34;10289272;28;20533;-91
2021/12/14 08:57:50;;;;;;;92.85;42.50;;;;;;;4.30;100.00;102229.56;10269648;28;20031;-89
2021/12/14 09:02:53;;;;;;;86.45;38.58;;;;;;;4.50;100.00;102227.19;10276154;28;20501;-89
2021/12/14 09:07:55;;;;;;;87.07;39.00;;;;;;;3.53;100.00;102030.59;10293501;28;20049;-89
2021/12/14 09:12:59;;;;;;;91.55;41.65;;;;;;;3.11;100.00;102050.88;10294623;28;20031;-89
2021/12/14 09:18:00;;;;;;;87.57;39.75;;;;;;;2.11;100.00;101899.97;10291399;28;20026;-92
2021/12/14 09:23:04;;;;;;;83.93;39.45;;;;;;;6.05;100.00;102552.06;10276216;28;20375;-89
2021/12/14 09:28:05;;;;;;;97.07;41.17;;;;;;;1.41;100.00;101784.69;10275586;28;20053;-89
2021/12/14 09:33:06;;;;;;;85.63;39.03;;;;;;;3.13;100.00;102030.63;10291368;28;20056;-89
2021/12/14 09:38:09;;;;;;;85.85;40.20;;;;;;;4.33;100.00;102212.84;10292397;28;20050;-92
2021/12/14 09:43:10;;;;;;;79.95;38.28;;;;;;;5.67;100.00;102527.38;10276077;28;20486;-92
2021/12/14 09:48:17;;;;;;;83.43;40.72;;;;;;;3.76;100.00;102001.53;10275672;28;20043;-89
2021/12/14 09:53:20;;;;;;;87.07;39.75;;;;;;;2.10;100.00;101821.34;10290270;28;20037;-90
2021/12/14 09:58:24;;;;;;;88.70;41.15;;;;;;;5.55;100.00;102288.44;10274459;28;20135;-89
2021/12/14 10:03:28;;;;;;;95.30;39.85;;;;;;;1.67;100.00;101772.75;10291635;28;20117;-92
2021/12/14 10:08:42;;;;;;;81.40;37.85;;;;;;;2.34;100.00;101734.31;10282348;28;20038;-94
2021/12/14 10:13:44;;;;;;;82.82;38.67;;;;;;;2.80;100.00;102076.97;10303052;28;20474;-92
2021/12/14 10:18:52;;;;;;;80.03;38.58;;;;;;;2.26;100.00;101758.81;10275580;28;20543;-94
2021/12/14 10:23:59;;;;;;;79.78;37.17;;;;;;;2.96;100.00;101921.03;10290498;28;20081;-93
2021/12/14 10:29:00;;;;;;;75.90;36.22;;;;;;;0.89;100.00;101638.66;10275082;28;20030;-92
2021/12/14 10:34:08;;;;;;;74.00;38.00;;;;;;;5.10;100.00;102410.31;10291202;28;20117;-93
2021/12/14 10:44:15;;;;;;;;;;;;;;;7.48;100.00;102560.13;10291161;28;20037;-89
2021/12/14 10:49:17;;;;;;;68.20;33.72;;;;;;;3.77;100.00;102063.13;10289165;28;20376;-90
2021/12/14 10:54:18;;;;;;;66.10;32.95;;;;;;;4.81;100.00;102161.66;10296971;28;20038;-91
2021/12/14 10:59:22;;;;;;;63.28;33.70;;;;;;;0.98;100.00;101491.19;10309389;28;20034;-90
2021/12/14 11:04:38;;;;;;;64.03;32.53;;;;;;;0.44;100.00;101433.31;10291201;28;20034;-92
2021/12/14 11:09:52;;;;;;;68.40;34.20;;;;;;;4.78;100.00;102172.09;10274373;28;20045;-93
2021/12/14 11:15:00;;;;;;;66.13;34.25;;;;;;;3.23;100.00;102030.44;10274192;28;20133;-89
2021/12/14 11:20:25;;;;;;;67.18;34.42;;;;;;;5.09;100.00;102332.19;10275563;28;20041;-92
2021/12/14 11:25:29;;;;;;;70.90;33.85;;;;;;;3.64;100.00;101967.56;10304213;28;20060;-92
2021/12/14 11:30:38;;;;;;;66.22;33.78;;;;;;;3.55;100.00;101930.53;10273965;28;20054;-95
2021/12/14 11:35:56;;;;;;;65.50;33.53;;;;;;;7.43;100.00;102567.22;10278813;28;20038;-91
2021/12/14 11:41:21;;;;;;;68.68;32.95;;;;;;;3.87;100.00;102032.94;10310156;28;20175;-96
2021/12/14 11:46:25;;;;;;;72.05;37.20;;;;;;;2.12;100.00;101787.56;10303330;28;20031;-91
2021/12/14 11:51:26;;;;;;;71.50;31.92;;;;;;;7.62;100.00;102657.03;10286210;28;20034;-91
2021/12/14 11:56:31;;;;;;;68.47;33.80;;;;;;;2.18;100.00;101715.38;10271186;28;20058;-91
2021/12/14 12:01:50;;;;;;;64.32;32.50;;;;;;;0.28;100.00;101507.31;10292227;28;20030;-95
2021/12/14 12:13:24;;;;;;;;;;;;;;;7.60;100.00;102545.91;10305193;28;20069;-93
2021/12/14 12:19:19;;;;;;;;;;;;;;;;;;;;;
2021/12/14 12:24:46;;;;;;;58.45;29.35;;;;;;;3.11;100.00;101912.13;10336177;28;20036;-94
2021/12/14 12:30:02;;;;;;;67.88;31.05;;;;;;;1.10;100.00;101616.41;10313554;28;20041;-93
2021/12/14 12:35:33;;;;;;;72.68;30.83;;;;;;;2.41;100.00;101739.84;10306529;28;20046;-93
2021/12/14 13:12:41;;;;;;;;;;;;;;;;;;;;;
2021/12/14 13:18:37;;;;;;;;;;;;;;;;;;;;;
2021/12/14 13:24:03;;;;;;;73.90;31.08;;;;;;;7.63;100.00;102559.22;10456300;28;20033;-93
2021/12/14 13:29:43;;;;;;;80.90;35.53;;;;;;;4.85;100.00;102097.47;10398406;28;20049;-93
2021/12/14 13:35:11;;;;;;;83.53;30.40;;;;;;;5.31;100.00;102383.19;10403657;28;20485;-94
2021/12/14 13:40:30;;;;;;;84.28;32.10;;;;;;;2.79;100.00;101990.13;10395415;28;20072;-93
2021/12/14 13:45:56;;;;;;;84.40;34.78;;;;;;;6.32;100.00;102527.91;10419815;28;20390;-90
2021/12/14 13:51:30;;;;;;;86.22;32.75;;;;;;;3.53;100.00;101993.31;10395996;28;20037;-95
2021/12/14 13:56:43;;;;;;;77.17;32.63;;;;;;;3.52;100.00;101871.00;10386381;28;20504;-89
2021/12/14 14:01:46;;;;;;;84.07;32.10;;;;;;;6.77;100.00;102403.75;10401312;28;20538;-88
2021/12/14 14:06:46;;;;;;;78.40;31.48;;;;;;;5.30;100.00;102253.16;10416256;28;20060;-88
2021/12/14 14:11:54;;;;;;;81.75;31.50;;;;;;;7.73;100.00;102565.25;10435457;28;20064;-89
2021/12/14 14:17:08;;;;;;;76.95;29.75;;;;;;;5.94;100.00;102303.72;10468458;28;20029;-87
2021/12/14 14:22:11;;;;;;;83.35;30.75;;;;;;;1.76;100.00;101731.00;10471488;28;20476;-88
2021/12/14 14:27:42;;;;;;;77.20;30.88;;;;;;;7.75;100.00;102587.84;10492838;28;20028;-89
2021/12/14 14:32:57;;;;;;;75.97;31.08;;;;;;;7.29;100.00;102544.25;10491456;28;20093;-85
2021/12/14 14:37:58;;;;;;;81.75;31.02;;;;;;;7.74;100.00;102591.63;10465670;28;20115;-88
2021/12/14 14:42:59;;;;;;;76.30;30.65;;;;;;;4.89;100.00;102234.41;10453600;28;20507;-88
2021/12/14 14:48:00;;;;;;;83.20;31.17;;;;;;;6.07;100.00;102312.13;10469592;28;20032;-87
2021/12/14 14:53:15;;;;;;;80.88;30.50;;;;;;;2.11;100.00;101802.16;10456880;28;20055;-89
2021/12/14 14:58:17;;;;;;;78.72;29.73;;;;;;;7.71;100.00;102586.53;10451357;28;20028;-89
2021/12/14 15:03:34;;;;;;;80.78;30.50;;;;;;;7.70;100.00;102589.47;10491979;28;20412;-88
2021/12/14 15:08:46;;;;;;;76.95;30.00;;;;;;;4.47;100.00;102066.69;10488735;28;20041;-88
2021/12/14 15:13:49;;;;;;;82.03;31.88;;;;;;;4.57;100.00;102301.84;10459255;28;20089;-88
2021/12/14 15:18:58;;;;;;;77.05;31.15;;;;;;;6.42;100.00;102440.97;10440148;23;20401;-88
2021/12/14 15:24:29;;;;;;;74.90;29.65;;;;;;;7.64;100.00;102571.88;10420974;28;20480;-88
2021/12/14 15:29:30;;;;;;;76.68;29.25;;;;;;;4.36;100.00;102238.88;10437263;28;20029;-88
2021/12/14 15:34:55;;;;;;;77.95;31.10;;;;;;;7.61;100.00;102572.28;10403372;28;20549;-90
2021/12/14 15:39:55;;;;;;;83.50;29.92;;;;;;;2.90;100.00;102025.13;10420687;28;20094;-89
2021/12/14 15:44:56;;;;;;;89.38;31.08;;;;;;;4.38;100.00;102237.69;10389147;28;20041;-90
2021/12/14 15:50:16;;;;;;;89.03;31.30;;;;;;;1.64;100.00;101745.97;10400718;28;20094;-90
2021/12/14 15:55:28;;;;;;;80.78;30.45;;;;;;;2.88;100.00;101852.25;10390121;28;20037;-94
2021/12/14 16:01:17;;;;;;;78.25;29.45;;;;;;;3.84;100.00;102011.50;10392889;28;20129;-94
2021/12/14 16:06:34;;;;;;;;;;;;;;;;;;;;;
2021/12/14 16:15:06;;;;;;;70.53;28.05;;;;;;;5.64;100.00;102503.16;10426841;28;20036;-90
2021/12/14 16:17:52;;;;;;;;;;;;;;;;;;;;;
2021/12/14 16:23:20;;;;;;;53.20;24.30;;;;;;;7.27;100.00;102792.91;10419181;28;20037;-91
2021/12/14 16:28:25;;;;;;;49.05;22.75;;;;;;;1.72;100.00;101709.81;10431881;28;20123;-94
2021/12/14 16:33:35;;;;;;;51.13;24.00;;;;;;;2.72;100.00;101877.66;10447766;28;20060;-94
2021/12/14 16:44:16;;;;;;;54.38;24.00;;;;;;;3.83;100.00;102096.97;10380130;28;20044;-90
2021/12/14 16:49:23;;;;;;;54.78;23.88;;;;;;;1.86;100.00;101895.59;10383877;28;20049;-89
2021/12/14 16:54:31;;;;;;;53.67;23.13;;;;;;;2.99;100.00;102051.25;10364823;28;20041;-89
2021/12/14 16:59:41;;;;;;;52.92;25.35;;;;;;;4.23;100.00;102079.47;10423505;28;20037;-89
2021/12/14 17:04:59;;;;;;;;;;;;;;;;;;;;;
2021/12/14 17:10:02;;;;;;;59.47;25.50;;;;;;;2.83;100.00;101989.63;10425146;28;20041;-95
2021/12/14 17:15:15;;;;;;;59.70;25.27;;;;;;;3.86;100.00;102085.72;10409286;28;20063;-95
2021/12/14 17:20:15;;;;;;;55.17;24.17;;;;;;;1.87;100.00;101854.69;10413737;28;20052;-95
2021/12/14 17:25:25;;;;;;;54.30;24.33;;;;;;;5.27;100.00;102275.34;10414008;28;20041;-95
2021/12/14 17:30:37;;;;;;;;;;;;;;;;;;;;;
2021/12/14 17:35:46;;;;;;;55.05;24.50;;;;;;;5.10;100.00;102388.47;10433313;28;20027;-89
2021/12/14 17:40:49;;;;;;;57.28;25.23;;;;;;;1.03;100.00;101694.03;10412551;28;20112;-95
2021/12/14 17:45:49;;;;;;;65.22;26.60;;;;;;;2.27;100.00;101806.66;10432263;28;20037;-95
2021/12/14 17:51:15;;;;;;;63.10;27.10;;;;;;;3.60;100.00;102072.44;10407598;28;20116;-93
2021/12/14 17:56:45;;;;;;;61.60;25.55;;;;;;;4.72;100.00;102216.50;10269879;28;20110;-89
2021/12/14 18:01:52;;;;;;;54.47;24.90;;;;;;;3.74;100.00;102174.31;10367188;28;20037;-89
2021/12/14 18:06:53;;;;;;;64.32;25.83;;;;;;;4.76;100.00;102231.47;10382251;28;20140;-95
2021/12/14 18:11:54;;;;;;;69.13;28.35;;;;;;;2.01;100.00;101861.28;10433635;28;20025;-94
2021/12/14 18:16:57;;;;;;;77.63;30.75;;;;;;;1.21;100.00;101626.03;10412193;28;20059;-89
2021/12/14 18:22:03;;;;;;;77.50;30.42;;;;;;;3.72;100.00;102192.69;10428790;28;20045;-89
2021/12/14 18:27:06;;;;;;;81.25;31.00;;;;;;;3.79;100.00;102103.81;10425889;28;20040;-95
2021/12/14 18:32:11;;;;;;;80.20;31.45;;;;;;;4.89;100.00;102282.69;10389683;28;20040;-95
2021/12/14 18:37:18;;;;;;;89.97;33.45;;;;;;;4.58;100.00;102209.94;10413138;28;20040;-89
2021/12/14 18:42:26;;;;;;;92.70;32.78;;;;;;;4.39;100.00;102247.56;10388437;28;20033;-88
2021/12/14 18:58:52;;;;;;;123.63;37.17;;;;;;;6.05;100.00;102377.09;10439998;28;20078;-86
2021/12/14 19:04:06;;;;;;;138.48;39.45;;;;;;;3.56;100.00;102062.94;10400683;28;20052;-91
2021/12/14 19:09:26;;;;;;;136.40;38.90;;;;;;;4.89;100.00;102241.75;10384073;28;20116;-89
2021/12/14 19:14:26;;;;;;;142.05;39.25;;;;;;;6.19;100.00;102605.97;10383400;28;20476;-89
2021/12/14 19:19:28;;;;;;;139.75;39.75;;;;;;;5.41;100.00;102370.13;10382579;28;20150;-85
2021/12/14 19:24:28;;;;;;;142.70;39.78;;;;;;;2.37;100.00;101890.72;10399663;28;20060;-90
2021/12/14 19:29:39;;;;;;;138.60;38.42;;;;;;;7.87;100.00;102654.84;10399497;28;20458;-90
2021/12/14 19:34:41;;;;;;;156.65;37.20;;;;;;;7.89;100.00;102751.47;10382865;28;20107;-90
2021/12/14 19:39:43;;;;;;;143.20;38.38;;;;;;;7.35;100.00;102613.91;10382097;28;20120;-85
2021/12/14 19:44:46;;;;;;;154.43;39.65;;;;;;;3.01;100.00;101961.31;10414471;28;20034;-86
2021/12/14 19:49:49;;;;;;;132.93;35.08;;;;;;;2.60;100.00;101970.50;10381694;28;20478;-86
2021/12/14 19:55:02;;;;;;;153.65;39.35;;;;;;;5.82;100.00;102388.91;10365862;28;20037;-86
2021/12/14 20:00:03;;;;;;;182.63;42.25;;;;;;;7.90;100.00;102667.31;10397843;28;20160;-90
2021/12/14 20:05:11;;;;;;;172.52;41.95;;;;;;;5.29;100.00;102452.69;10398063;28;20497;-86
2021/12/14 20:10:14;;;;;;;169.93;40.75;;;;;;;5.79;100.00;102506.81;10398320;28;20049;-90
2021/12/14 20:15:20;;;;;;;182.68;42.70;;;;;;;5.98;100.00;102376.16;10365613;28;20049;-86
2021/12/14 20:20:25;;;;;;;170.98;41.70;;;;;;;7.91;100.00;102690.94;10381510;28;20072;-86
2021/12/14 20:25:32;;;;;;;196.52;46.15;;;;;;;2.68;100.00;101933.41;10380771;28;20037;-90
2021/12/14 20:30:44;;;;;;;188.98;47.08;;;;;;;4.80;100.00;102435.56;10364579;28;20029;-86
2021/12/14 20:35:44;;;;;;;200.02;45.65;;;;;;;7.97;100.00;102882.16;10365031;28;20064;-89
2021/12/14 20:40:51;;;;;;;187.25;45.40;;;;;;;4.37;100.00;102281.50;10381410;28;20061;-86
2021/12/14 20:45:54;;;;;;;194.13;45.45;;;;;;;7.98;100.00;102762.31;10380357;28;20052;-87
2021/12/14 20:51:05;;;;;;;195.55;46.50;;;;;;;7.44;100.00;102630.06;10397251;28;20041;-89
2021/12/14 20:56:12;;;;;;;180.88;43.13;;;;;;;2.83;100.00;102045.88;10386254;28;20113;-86
2021/12/14 21:01:12;;;;;;;194.80;46.10;;;;;;;4.41;100.00;102247.38;10371639;28;20392;-89
2021/12/14 21:06:35;;;;;;;198.43;47.38;;;;;;;3.04;100.00;101876.63;10392979;28;20037;-89
2021/12/14 21:11:38;;;;;;;219.02;49.05;;;;;;;6.66;100.00;102535.63;10436939;28;20041;-89
2021/12/14 21:16:41;;;;;;;189.73;48.05;;;;;;;5.00;100.00;102214.88;10401604;28;20485;-89
2021/12/14 21:21:42;;;;;;;200.10;45.65;;;;;;;4.85;100.00;102331.31;10398888;28;20821;-85
2021/12/14 21:26:43;;;;;;;199.20;47.53;;;;;;;5.75;100.00;102456.28;10426621;28;20029;-85
2021/12/14 21:31:44;;;;;;;167.02;44.75;;;;;;;5.37;100.00;102325.09;10418707;28;20068;-85
2021/12/14 21:36:45;;;;;;;197.73;48.13;;;;;;;2.22;100.00;101934.91;10431170;28;20041;-89
2021/12/14 21:41:50;;;;;;;204.25;50.28;;;;;;;4.83;100.00;102197.78;10393989;28;20033;-89
2021/12/14 21:46:54;;;;;;;196.65;47.47;;;;;;;5.75;100.00;102396.16;10409825;28;20405;-87
2021/12/14 21:52:02;;;;;;;186.55;47.10;;;;;;;6.93;100.00;102545.06;10386126;28;20128;-83
2021/12/14 21:57:03;;;;;;;224.73;52.08;;;;;;;5.19;100.00;102253.63;10408814;28;20047;-85
2021/12/14 22:02:04;;;;;;;229.63;51.05;;;;;;;3.72;100.00;102045.63;10401709;28;20045;-86
2021/12/14 22:07:09;;;;;;;207.73;48.67;;;;;;;4.33;100.00;102173.81;10420194;28;20028;-85
2021/12/14 22:12:13;;;;;;;221.00;48.35;;;;;;;4.89;100.00;102196.22;10406344;28;20382;-85
2021/12/14 22:17:14;;;;;;;220.75;48.85;;;;;;;3.61;100.00;102147.66;10448313;23;20056;-89
2021/12/14 22:22:18;;;;;;;209.70;50.17;;;;;;;5.80;100.00;102429.22;10413282;28;20114;-91
2021/12/14 22:27:18;;;;;;;205.07;48.90;;;;;;;5.35;100.00;102301.75;10411695;28;20453;-90
2021/12/14 22:32:19;;;;;;;231.00;54.85;;;;;;;4.24;100.00;102213.91;10412117;28;20115;-90
2021/12/14 22:37:19;;;;;;;223.70;51.28;;;;;;;8.19;100.00;102721.25;10411114;28;20061;-90
2021/12/14 22:47:29;;;;;;;204.93;50.17;;;;;;;6.17;100.00;102463.09;10428166;28;20033;-85
2021/12/14 22:52:31;;;;;;;223.50;51.72;;;;;;;4.85;100.00;102228.47;10409039;28;20477;-85
2021/12/14 22:57:31;;;;;;;235.98;56.15;;;;;;;5.52;100.00;102338.81;10409163;28;20111;-85
2021/12/14 23:02:32;;;;;;;245.40;54.42;;;;;;;2.03;100.00;101731.59;10409802;28;20033;-85
2021/12/14 23:07:32;;;;;;;224.45;52.72;;;;;;;3.40;100.00;101966.69;10410954;28;20090;-90
2021/12/14 23:12:37;;;;;;;227.63;53.90;;;;;;;3.44;100.00;102068.75;10410280;28;20131;-91
2021/12/14 23:17:53;;;;;;;223.93;53.38;;;;;;;5.58;100.00;102375.47;10426174;28;20083;-90
2021/12/14 23:22:53;;;;;;;194.53;51.97;;;;;;;5.91;100.00;102354.13;10413623;28;20041;-90
2021/12/14 23:27:54;;;;;;;216.52;53.60;;;;;;;4.75;100.00;102164.28;10409517;28;20049;-90
2021/12/14 23:32:54;;;;;;;191.85;49.13;;;;;;;5.30;100.00;102410.69;10426276;28;20045;-90
2021/12/14 23:37:57;;;;;;;218.95;55.58;;;;;;;4.58;100.00;102131.69;10409168;28;20120;-89
2021/12/14 23:42:57;;;;;;;209.10;53.65;;;;;;;4.67;100.00;102268.00;10410261;28;20025;-89
2021/12/14 23:47:58;;;;;;;221.25;55.65;;;;;;;5.81;100.00;102441.88;10408772;28;20037;-90
2021/12/14 23:52:59;;;;;;;216.02;53.97;;;;;;;5.62;100.00;102335.81;10408962;28;20037;-90
2021/12/14 23:57:59;;;;;;;199.50;54.47;;;;;;;5.21;100.00;102216.06;10422496;28;20087;-85
